De La Serna, Argentina
Current Conditions -  °F | °C
As of 5:00 PM on Monday 20 Oct 2014 (Local Time) from SAOC Reporting Station
Clear Clear  
Wind Chill: 28°   Ceiling: Unl
Heat Index: 28°   Visibility: 6mi
Dew Point:   Wind: 23mph
Humidity: 19%   Direction: 360°N
Pressure: 29.94"   Gusts: 37mph
Location:  34.5°S, 64.33°W
Report Text: SAOC 202000Z 36020G32KT CAVOK 28/02 Q1014
Loading
Personal Weather Stations






























Interactive Weather Map
Tropical Storm Tracking
New forecast layout! Learn more

10-Day Weather Forecast

Advertisements
Track Severe Weather on mobile